Time;durP1;ratioP1;P1;durP2;ratioP2;P2;SDS_P1;SDS_P2;PMS_P1;PMS_P2;Temp;Humidity;BMP_temperature;BMP_pressure;BME280_temperature;BME280_humidity;BME280_pressure;Samples;Min_cycle;Max_cycle;Signal;HPM_P1;HPM_P2
2022/09/25 00:01:13;;;;;;;2.57;2.40;;;;;;;13.52;100.00;95079.47;4385412;32;20225;-62
2022/09/25 00:03:39;;;;;;;3.07;2.93;;;;;;;13.45;100.00;95078.41;4387951;32;20312;-62
2022/09/25 00:06:29;;;;;;;3.43;2.43;;;;;;;13.41;100.00;95078.25;4363853;32;20193;-62
2022/09/25 00:08:55;;;;;;;2.17;2.07;;;;;;;13.43;100.00;95072.63;4361653;32;20246;-62
2022/09/25 00:11:28;;;;;;;2.80;2.70;;;;;;;13.49;100.00;95074.03;4393038;32;20191;-62
2022/09/25 00:14:05;;;;;;;4.80;1.87;;;;;;;13.51;100.00;95075.25;4398146;32;20215;-62
2022/09/25 00:16:31;;;;;;;1.80;1.70;;;;;;;13.50;100.00;95065.72;4372178;32;20188;-62
2022/09/25 00:21:50;;;;;;;2.70;2.60;;;;;;;13.33;100.00;95058.53;4394459;32;20204;-61
2022/09/25 00:24:18;;;;;;;5.60;2.33;;;;;;;13.43;100.00;95060.09;4368705;32;20188;-63
2022/09/25 00:26:44;;;;;;;1.43;1.43;;;;;;;13.45;100.00;95055.22;4404638;32;20189;-62
2022/09/25 00:29:16;;;;;;;2.97;2.87;;;;;;;13.35;100.00;95056.31;4392430;32;20273;-62
2022/09/25 00:31:47;;;;;;;2.50;2.40;;;;;;;13.37;100.00;95054.13;4358512;32;20196;-61
2022/09/25 00:34:14;;;;;;;2.57;2.47;;;;;;;13.45;100.00;95049.88;4396308;32;20188;-62
2022/09/25 00:36:39;;;;;;;2.07;1.97;;;;;;;13.31;100.00;95049.28;4398318;32;20192;-62
2022/09/25 00:39:06;;;;;;;2.77;2.67;;;;;;;13.32;100.00;95042.84;4380979;32;20263;-61
2022/09/25 00:41:33;;;;;;;2.93;2.80;;;;;;;13.34;100.00;95040.66;4384143;32;20184;-62
2022/09/25 00:44:01;;;;;;;2.10;2.10;;;;;;;13.36;100.00;95041.13;4363344;32;20193;-62
2022/09/25 00:46:39;;;;;;;2.23;2.13;;;;;;;13.27;100.00;95045.69;4377837;32;20188;-61
2022/09/25 00:49:21;;;;;;;2.27;2.17;;;;;;;13.28;100.00;95042.72;4382184;32;20207;-62
2022/09/25 00:51:52;;;;;;;4.07;2.87;;;;;;;13.22;100.00;95040.53;4365403;32;20192;-62
2022/09/25 00:54:28;;;;;;;3.83;3.47;;;;;;;13.21;100.00;95036.31;4364970;32;20207;-62
2022/09/25 00:56:55;;;;;;;3.17;2.80;;;;;;;13.13;100.00;95037.06;4394610;32;20187;-62
2022/09/25 00:59:51;;;;;;;2.03;1.93;;;;;;;13.06;100.00;95042.88;4372556;32;20188;-62
2022/09/25 01:02:23;;;;;;;2.10;2.00;;;;;;;13.15;100.00;95033.00;4366813;32;20188;-62
2022/09/25 01:04:51;;;;;;;2.63;2.43;;;;;;;13.13;100.00;95039.72;4371959;32;20192;-62
2022/09/25 01:07:17;;;;;;;2.37;2.27;;;;;;;13.15;100.00;95042.84;4390370;32;20184;-62
2022/09/25 01:09:45;;;;;;;2.17;2.07;;;;;;;13.05;100.00;95046.66;4358775;32;20279;-62
2022/09/25 01:12:11;;;;;;;2.33;2.23;;;;;;;13.03;100.00;95038.97;4382147;32;20201;-62
2022/09/25 01:14:40;;;;;;;2.20;2.10;;;;;;;12.99;100.00;95040.69;4386604;32;20192;-61
2022/09/25 01:17:31;;;;;;;1.63;1.60;;;;;;;13.01;100.00;95043.81;4386397;32;20279;-62
2022/09/25 01:20:35;;;;;;;2.63;2.53;;;;;;;13.11;100.00;95028.59;4374086;32;20219;-61
2022/09/25 01:23:25;;;;;;;2.20;2.00;;;;;;;12.78;100.00;95018.47;4395382;32;20199;-62
2022/09/25 01:26:48;;;;;;;1.73;1.73;;;;;;;12.86;100.00;95017.69;4342174;32;20193;-62
2022/09/25 01:29:29;;;;;;;2.20;2.10;;;;;;;12.85;100.00;95024.09;4391422;32;20210;-62
2022/09/25 01:32:02;;;;;;;1.23;1.23;;;;;;;12.78;100.00;95031.78;4394621;32;20198;-62
2022/09/25 01:34:39;;;;;;;1.80;1.80;;;;;;;12.78;100.00;95026.44;4376300;32;20194;-61
2022/09/25 01:37:22;;;;;;;1.40;1.40;;;;;;;12.78;100.00;95031.00;4385983;32;20216;-62
2022/09/25 01:40:01;;;;;;;2.17;2.07;;;;;;;12.87;100.00;95018.47;4402145;32;20180;-62
2022/09/25 01:42:38;;;;;;;1.47;1.47;;;;;;;12.83;100.00;95012.22;4387350;32;20191;-62
2022/09/25 01:45:08;;;;;;;1.57;1.53;;;;;;;12.64;100.00;95017.84;4384403;32;20188;-62
2022/09/25 01:47:39;;;;;;;1.73;1.63;;;;;;;12.76;100.00;95017.22;4390736;32;20185;-62
2022/09/25 01:50:12;;;;;;;2.27;2.17;;;;;;;12.67;100.00;95014.56;4396817;32;20189;-62
2022/09/25 01:52:44;;;;;;;1.93;1.80;;;;;;;12.47;100.00;95012.53;4401867;32;20195;-62
2022/09/25 01:55:26;;;;;;;1.23;1.13;;;;;;;12.64;100.00;95009.88;4384807;32;20204;-61
2022/09/25 01:57:58;;;;;;;1.33;1.33;;;;;;;12.55;100.00;95017.06;4397989;32;20184;-62
2022/09/25 02:00:25;;;;;;;1.73;1.70;;;;;;;12.62;100.00;95006.75;4401484;32;20210;-62
2022/09/25 02:02:59;;;;;;;2.10;2.00;;;;;;;12.58;100.00;95009.25;4382585;32;20188;-61
2022/09/25 02:05:34;;;;;;;2.00;1.90;;;;;;;12.67;99.73;95014.56;4344596;32;20259;-62
2022/09/25 02:08:09;;;;;;;1.70;1.70;;;;;;;12.59;99.73;95007.34;4390084;32;20235;-62
2022/09/25 02:10:43;;;;;;;1.40;1.30;;;;;;;12.59;99.98;95002.81;4393469;32;20183;-62
2022/09/25 02:13:13;;;;;;;1.47;1.37;;;;;;;12.53;100.00;95011.25;4392958;32;20202;-62
2022/09/25 02:15:51;;;;;;;2.53;2.43;;;;;;;12.50;100.00;95018.00;4425164;32;20611;-62
2022/09/25 02:21:39;;;;;;;2.00;1.90;;;;;;;12.34;100.00;95012.34;4381650;32;20206;-62
2022/09/25 02:24:29;;;;;;;2.17;2.07;;;;;;;12.34;100.00;95011.56;4391916;32;20191;-61
2022/09/25 02:26:55;;;;;;;1.30;1.27;;;;;;;12.38;100.00;95015.97;4381759;32;20214;-62
2022/09/25 02:29:22;;;;;;;1.30;1.30;;;;;;;12.22;100.00;95027.38;4396224;32;20184;-62
2022/09/25 02:31:58;;;;;;;1.63;1.63;;;;;;;12.35;99.65;95018.44;4394977;32;20300;-62
2022/09/25 02:34:24;;;;;;;2.77;2.60;;;;;;;12.14;100.00;95028.91;4390977;32;20184;-62
2022/09/25 02:36:51;;;;;;;1.77;1.77;;;;;;;12.18;100.00;95027.19;4389654;32;20188;-62
2022/09/25 02:39:21;;;;;;;2.10;2.00;;;;;;;12.15;100.00;95027.81;4390387;32;20189;-62
2022/09/25 02:42:12;;;;;;;1.50;1.50;;;;;;;12.16;100.00;95036.56;4383992;32;20251;-62
2022/09/25 02:45:09;;;;;;;1.80;1.70;;;;;;;12.09;100.00;95036.22;4383182;32;20208;-61
2022/09/25 02:47:43;;;;;;;1.27;1.27;;;;;;;12.29;100.00;95031.09;4384209;32;20232;-62
2022/09/25 02:50:51;;;;;;;1.27;1.27;;;;;;;12.19;100.00;95036.75;4394153;32;20285;-62
2022/09/25 02:53:38;;;;;;;1.60;1.50;;;;;;;12.20;100.00;95025.00;4363087;32;20210;-62
2022/09/25 02:56:19;;;;;;;1.33;1.20;;;;;;;12.08;100.00;95019.50;4378695;32;20203;-63
2022/09/25 02:58:57;;;;;;;1.20;1.20;;;;;;;12.11;100.00;95013.56;4399824;32;20210;-62
2022/09/25 03:01:27;;;;;;;1.30;0.93;;;;;;;12.19;100.00;95007.50;4379296;32;20192;-62
2022/09/25 03:03:57;;;;;;;1.77;1.67;;;;;;;12.17;100.00;95004.34;4375724;32;20192;-62
2022/09/25 03:06:25;;;;;;;1.23;1.23;;;;;;;12.02;100.00;95004.81;4392726;32;20195;-61
2022/09/25 03:08:55;;;;;;;1.57;1.57;;;;;;;11.93;100.00;95003.97;4389176;32;20196;-62
2022/09/25 03:11:22;;;;;;;1.07;1.07;;;;;;;12.13;100.00;94990.09;4395581;32;20271;-62
2022/09/25 03:14:17;;;;;;;0.80;0.80;;;;;;;12.23;99.42;95005.78;4393958;32;20192;-62
2022/09/25 03:16:50;;;;;;;1.00;1.00;;;;;;;12.31;99.03;95001.53;4399856;32;20189;-62
2022/09/25 03:19:19;;;;;;;1.23;1.13;;;;;;;12.21;99.00;94994.66;4385112;32;20218;-66
2022/09/25 03:21:46;;;;;;;1.17;1.17;;;;;;;12.22;99.23;94993.56;4379205;32;20188;-61
2022/09/25 03:24:17;;;;;;;1.60;1.60;;;;;;;12.22;99.18;94998.09;4355201;32;20284;-62
2022/09/25 03:26:43;;;;;;;0.87;0.87;;;;;;;12.08;99.59;94995.56;4386628;32;20188;-62
2022/09/25 03:29:11;;;;;;;1.73;1.63;;;;;;;12.06;100.00;94987.13;4384358;32;20203;-62
2022/09/25 03:31:39;;;;;;;1.73;1.63;;;;;;;11.97;100.00;94981.78;4362766;32;20202;-62
2022/09/25 03:34:08;;;;;;;1.60;1.60;;;;;;;11.95;100.00;94973.34;4387981;32;21574;-62
2022/09/25 03:36:35;;;;;;;1.03;1.03;;;;;;;12.03;100.00;94980.56;4384471;32;20211;-62
2022/09/25 03:39:03;;;;;;;0.87;0.87;;;;;;;12.02;100.00;94979.00;4395484;32;20198;-62
2022/09/25 03:41:30;;;;;;;1.30;1.30;;;;;;;12.18;99.61;94976.66;4386569;32;20189;-62
2022/09/25 03:43:56;;;;;;;1.37;1.10;;;;;;;12.19;99.48;94986.22;4373109;32;20184;-62
2022/09/25 03:46:34;;;;;;;1.60;1.60;;;;;;;12.22;99.06;94988.25;4370966;32;20226;-62
2022/09/25 03:49:00;;;;;;;0.90;0.90;;;;;;;12.03;99.84;94985.09;4377085;32;20255;-62
2022/09/25 03:51:31;;;;;;;1.50;1.50;;;;;;;12.06;99.96;94981.78;4381005;32;20185;-62
2022/09/25 03:53:59;;;;;;;1.30;1.30;;;;;;;12.15;99.26;94985.25;4390490;32;20242;-62
2022/09/25 03:56:28;;;;;;;0.80;0.80;;;;;;;12.07;99.60;94987.91;4383181;32;20221;-62
2022/09/25 03:58:55;;;;;;;0.63;0.63;;;;;;;12.15;98.91;94987.91;4374521;32;20185;-62
2022/09/25 04:01:26;;;;;;;1.73;1.00;;;;;;;12.15;98.91;94992.47;4349704;32;20204;-62
2022/09/25 04:03:53;;;;;;;0.97;0.97;;;;;;;11.98;99.66;94977.25;4352380;32;20213;-62
2022/09/25 04:06:23;;;;;;;1.00;1.00;;;;;;;12.00;99.96;94970.56;4389309;32;20179;-62
2022/09/25 04:08:51;;;;;;;1.47;1.40;;;;;;;12.00;100.00;94975.09;4392353;32;20188;-62
2022/09/25 04:11:21;;;;;;;1.20;1.20;;;;;;;12.04;99.46;94970.72;4367451;32;20190;-64
2022/09/25 04:13:47;;;;;;;1.60;1.60;;;;;;;11.97;99.93;94970.37;4395422;32;20227;-62
2022/09/25 04:16:15;;;;;;;1.20;1.20;;;;;;;12.06;99.85;94963.19;4385558;32;20183;-62
2022/09/25 04:18:46;;;;;;;1.33;1.33;;;;;;;12.04;99.43;94965.41;4384328;32;20188;-62
2022/09/25 04:21:13;;;;;;;1.63;1.53;;;;;;;12.02;98.85;94959.59;4380617;32;20266;-62
2022/09/25 04:23:39;;;;;;;1.43;1.43;;;;;;;12.03;98.91;94961.97;4388772;32;20277;-62
2022/09/25 04:26:06;;;;;;;1.20;1.10;;;;;;;12.07;98.51;94967.41;4379998;32;20267;-62
2022/09/25 04:28:34;;;;;;;1.30;1.30;;;;;;;12.03;98.86;94963.84;4385713;32;20189;-62
2022/09/25 04:31:02;;;;;;;0.83;0.83;;;;;;;11.90;99.42;94967.38;4380521;32;20196;-61
2022/09/25 04:36:17;;;;;;;0.93;0.93;;;;;;;11.99;99.53;94968.97;4386706;32;20270;-61
2022/09/25 04:38:43;;;;;;;1.40;1.30;;;;;;;11.97;99.64;94959.75;4413735;32;20191;-61
2022/09/25 04:41:09;;;;;;;0.90;0.90;;;;;;;11.95;99.99;94968.03;4367199;32;20199;-61
2022/09/25 04:43:34;;;;;;;3.17;2.90;;;;;;;12.00;99.82;94973.22;4395463;32;20188;-61
2022/09/25 04:46:06;;;;;;;0.80;0.80;;;;;;;12.04;99.61;94976.03;4401783;32;20192;-61
2022/09/25 04:48:32;;;;;;;1.50;1.50;;;;;;;12.02;99.63;94975.56;4396232;32;20227;-61
2022/09/25 04:50:59;;;;;;;1.57;1.40;;;;;;;11.89;100.00;94968.47;4357706;32;20211;-61
2022/09/25 04:53:28;;;;;;;1.10;1.10;;;;;;;11.92;100.00;94973.19;4388118;32;20184;-61
2022/09/25 04:56:06;;;;;;;2.57;1.47;;;;;;;12.00;99.83;94975.09;4381548;32;20250;-61
2022/09/25 04:58:32;;;;;;;4.63;1.10;;;;;;;12.11;99.71;94968.34;4378073;32;20208;-62
2022/09/25 05:01:07;;;;;;;0.80;0.80;;;;;;;11.96;99.46;94974.12;4387149;32;20175;-61
2022/09/25 05:03:35;;;;;;;1.03;1.03;;;;;;;11.91;100.00;94976.94;4351883;32;20188;-62
2022/09/25 05:06:05;;;;;;;0.93;0.93;;;;;;;12.01;99.18;94984.63;4414109;32;20249;-62
2022/09/25 05:08:32;;;;;;;1.37;1.27;;;;;;;12.07;99.21;94987.91;4399745;32;20180;-62
2022/09/25 05:10:58;;;;;;;1.03;1.03;;;;;;;11.96;99.32;94985.53;4393400;32;20266;-61
2022/09/25 05:13:23;;;;;;;1.10;1.10;;;;;;;11.93;99.94;94985.37;4396145;32;20180;-62
2022/09/25 05:15:49;;;;;;;1.10;1.07;;;;;;;11.87;99.95;94992.72;4371043;32;20184;-62
2022/09/25 05:18:19;;;;;;;0.93;0.93;;;;;;;11.94;100.00;94986.94;4366961;32;20180;-62
2022/09/25 05:20:46;;;;;;;1.43;1.43;;;;;;;11.76;100.00;94995.94;4323495;32;20185;-62
2022/09/25 05:23:12;;;;;;;1.03;1.03;;;;;;;11.58;100.00;94985.25;4367810;32;20188;-62
2022/09/25 05:25:38;;;;;;;0.70;0.70;;;;;;;11.52;100.00;94980.38;4386294;32;20184;-62
2022/09/25 05:28:05;;;;;;;0.83;0.83;;;;;;;11.75;100.00;94981.09;4384299;32;20195;-61
2022/09/25 05:30:33;;;;;;;0.60;0.60;;;;;;;11.93;100.00;94975.53;4374069;32;20185;-61
2022/09/25 05:33:01;;;;;;;0.80;0.80;;;;;;;11.92;100.00;94976.63;4386073;32;20238;-62
2022/09/25 05:35:30;;;;;;;1.43;1.43;;;;;;;11.82;100.00;94981.47;4377063;32;20330;-62
2022/09/25 05:37:55;;;;;;;0.77;0.77;;;;;;;11.88;100.00;94982.84;4352139;32;20200;-62
2022/09/25 05:40:23;;;;;;;0.80;0.80;;;;;;;11.95;100.00;94977.87;4390611;32;20197;-62
2022/09/25 05:42:51;;;;;;;0.83;0.83;;;;;;;11.99;99.99;94979.63;4343111;32;20192;-62
2022/09/25 05:45:19;;;;;;;0.63;0.63;;;;;;;12.04;100.00;94981.34;4392836;32;20192;-63
2022/09/25 05:47:46;;;;;;;1.27;0.67;;;;;;;11.92;100.00;94978.50;4396839;32;20240;-62
2022/09/25 05:50:15;;;;;;;0.70;0.70;;;;;;;11.97;100.00;94984.44;4397955;32;20200;-61
2022/09/25 05:52:42;;;;;;;1.00;1.00;;;;;;;12.01;100.00;94982.75;4385055;32;20254;-62
2022/09/25 05:55:09;;;;;;;0.50;0.50;;;;;;;12.06;100.00;94987.13;4373963;32;20203;-62
2022/09/25 05:57:36;;;;;;;0.97;0.97;;;;;;;12.08;99.84;94982.28;4403535;32;20168;-61
2022/09/25 06:00:06;;;;;;;0.70;0.70;;;;;;;12.15;99.84;94985.25;4386027;32;20290;-62
2022/09/25 06:02:32;;;;;;;0.80;0.80;;;;;;;11.93;99.73;94982.72;4405375;32;20192;-62
2022/09/25 06:04:59;;;;;;;1.33;1.33;;;;;;;12.01;99.84;94985.41;4387522;32;20191;-62
2022/09/25 06:07:24;;;;;;;1.17;1.17;;;;;;;12.01;99.75;94976.66;4364028;32;20200;-61
2022/09/25 06:09:50;;;;;;;0.60;0.60;;;;;;;12.17;99.07;94980.41;4369567;32;20192;-61
2022/09/25 06:12:15;;;;;;;1.03;1.03;;;;;;;12.21;98.35;94980.59;4381055;32;20278;-62
2022/09/25 06:14:40;;;;;;;0.70;0.70;;;;;;;11.94;99.37;94981.62;4390320;32;20204;-62
2022/09/25 06:17:07;;;;;;;0.73;0.73;;;;;;;12.11;99.14;94983.53;4351454;32;20355;-62
2022/09/25 06:19:32;;;;;;;0.97;0.97;;;;;;;12.11;99.24;94981.66;4382627;32;20189;-62
2022/09/25 06:21:58;;;;;;;1.10;1.10;;;;;;;12.25;99.00;94981.53;4401815;32;20206;-62
2022/09/25 06:24:25;;;;;;;0.50;0.50;;;;;;;12.24;98.47;94991.38;4398169;32;20183;-62
2022/09/25 06:26:50;;;;;;;0.57;0.57;;;;;;;12.22;98.47;94985.59;4386308;32;20183;-62
2022/09/25 06:29:18;;;;;;;0.83;0.83;;;;;;;12.27;98.64;94982.75;4375892;32;20192;-62
2022/09/25 06:31:43;;;;;;;1.30;1.30;;;;;;;12.13;99.10;94986.66;4389735;32;20188;-62
2022/09/25 06:34:10;;;;;;;1.27;1.27;;;;;;;12.22;99.14;94980.28;4393869;32;20229;-62
2022/09/25 06:36:37;;;;;;;1.23;1.13;;;;;;;12.08;99.62;94987.59;4404781;32;21536;-62
2022/09/25 06:39:07;;;;;;;0.93;0.93;;;;;;;12.11;99.71;94988.84;4380147;32;20196;-62
2022/09/25 06:41:35;;;;;;;1.47;1.37;;;;;;;12.19;99.80;94993.41;4357545;32;20227;-62
2022/09/25 06:44:01;;;;;;;1.20;1.20;;;;;;;12.26;99.41;94986.50;4384798;32;20258;-62
2022/09/25 06:46:27;;;;;;;1.27;1.10;;;;;;;12.24;99.21;94988.72;4362978;32;20247;-61
2022/09/25 06:48:57;;;;;;;1.17;1.07;;;;;;;12.30;99.16;94984.03;4391227;32;20212;-62
2022/09/25 06:51:31;;;;;;;0.77;0.77;;;;;;;12.20;99.83;94979.81;4371488;32;20188;-61
2022/09/25 06:53:58;;;;;;;0.67;0.67;;;;;;;12.40;99.11;94983.72;4351799;32;20258;-61
2022/09/25 06:56:24;;;;;;;1.33;1.33;;;;;;;12.50;98.26;94980.75;4363206;32;20264;-61
2022/09/25 06:58:52;;;;;;;0.70;0.70;;;;;;;12.53;97.69;94982.00;4389017;32;20184;-62
2022/09/25 07:01:17;;;;;;;0.63;0.63;;;;;;;12.43;98.54;94977.00;4368550;32;20185;-61
2022/09/25 07:03:44;;;;;;;0.50;0.50;;;;;;;12.59;97.89;94981.53;4381802;32;20409;-61
2022/09/25 07:06:25;;;;;;;0.40;0.40;;;;;;;12.52;98.01;94980.44;4366970;32;20196;-62
2022/09/25 07:08:55;;;;;;;0.80;0.80;;;;;;;12.41;99.38;94984.50;4405964;32;20277;-61
2022/09/25 07:11:25;;;;;;;1.47;1.23;;;;;;;12.45;98.92;94988.13;4371252;32;20263;-62
2022/09/25 07:13:53;;;;;;;1.17;1.17;;;;;;;12.42;99.06;94984.19;4391598;32;20208;-62
2022/09/25 07:16:21;;;;;;;0.90;0.90;;;;;;;12.41;99.64;94981.84;4383081;32;20200;-62
2022/09/25 07:18:46;;;;;;;1.07;1.07;;;;;;;12.63;98.90;94981.69;4395923;32;20200;-65
2022/09/25 07:21:15;;;;;;;1.20;1.20;;;;;;;12.65;99.07;94984.81;4400961;32;20183;-61
2022/09/25 07:23:42;;;;;;;0.93;0.93;;;;;;;12.64;99.64;94984.03;4374137;32;20196;-62
2022/09/25 07:26:16;;;;;;;1.90;1.73;;;;;;;12.73;99.85;94986.69;4371295;32;20385;-61
2022/09/25 07:28:42;;;;;;;1.07;1.07;;;;;;;12.67;99.80;94978.09;4382968;32;20297;-61
2022/09/25 07:31:16;;;;;;;0.73;0.73;;;;;;;12.66;100.00;94975.75;4364280;32;20192;-60
2022/09/25 07:33:43;;;;;;;0.97;0.97;;;;;;;12.72;100.00;94975.25;4354771;32;20211;-61
2022/09/25 07:36:11;;;;;;;0.90;0.90;;;;;;;12.83;99.87;94974.94;4371825;32;20288;-61
2022/09/25 07:38:40;;;;;;;0.57;0.57;;;;;;;12.81;99.90;94975.25;4384836;32;20249;-61
2022/09/25 07:41:09;;;;;;;1.30;1.30;;;;;;;12.96;99.96;94979.28;4400149;32;20207;-61
2022/09/25 07:43:42;;;;;;;1.17;1.17;;;;;;;13.02;99.84;94984.16;4391205;32;20188;-62
2022/09/25 07:46:12;;;;;;;1.33;1.23;;;;;;;13.09;99.96;94978.34;4357473;32;20180;-61
2022/09/25 07:48:38;;;;;;;3.23;2.43;;;;;;;13.12;99.67;94979.56;4389703;32;20346;-53
2022/09/25 07:51:09;;;;;;;4.70;2.07;;;;;;;13.98;100.00;94981.91;4378663;32;20249;-55
2022/09/25 07:53:34;;;;;;;2.63;1.20;;;;;;;14.63;100.00;94983.22;4378996;32;20191;-53
2022/09/25 07:56:01;;;;;;;1.57;1.47;;;;;;;15.04;98.56;94979.69;4386384;32;20211;-54
2022/09/25 07:58:27;;;;;;;2.77;1.63;;;;;;;15.49;93.83;94987.72;4402956;32;20203;-53
2022/09/25 08:01:00;;;;;;;0.90;0.87;;;;;;;15.78;91.02;94990.22;4368173;32;20196;-52
2022/09/25 08:03:27;;;;;;;2.10;2.00;;;;;;;16.01;89.10;94995.13;4364918;32;20188;-54
2022/09/25 08:06:12;;;;;;;1.37;1.30;;;;;;;16.26;87.28;94985.16;4380777;32;20203;-53
2022/09/25 08:08:40;;;;;;;0.83;0.83;;;;;;;16.39;85.94;94984.03;4379534;32;20184;-50
2022/09/25 08:11:10;;;;;;;1.87;1.77;;;;;;;16.55;84.65;94995.59;4390748;32;20203;-54
2022/09/25 08:13:39;;;;;;;1.67;1.57;;;;;;;16.50;84.34;94991.25;4387376;32;20195;-52
2022/09/25 08:16:15;;;;;;;1.53;1.50;;;;;;;16.68;83.51;94991.00;4395592;32;20192;-54
2022/09/25 08:18:44;;;;;;;1.83;1.73;;;;;;;16.71;82.75;94987.66;4373314;32;20188;-55
2022/09/25 08:21:13;;;;;;;1.23;1.23;;;;;;;16.73;82.44;94982.75;4381765;32;20187;-54
2022/09/25 08:23:41;;;;;;;0.90;0.90;;;;;;;16.73;82.55;94983.53;4374480;32;20267;-55
2022/09/25 08:26:08;;;;;;;0.90;0.90;;;;;;;16.77;82.45;94983.63;4390440;32;20289;-54
2022/09/25 08:28:35;;;;;;;1.80;1.70;;;;;;;16.64;82.93;94990.12;4395703;32;20201;-55
2022/09/25 08:31:03;;;;;;;2.80;2.60;;;;;;;16.73;82.56;94980.06;4391520;32;20200;-50
2022/09/25 08:33:29;;;;;;;2.23;2.13;;;;;;;16.75;84.32;94980.50;4403579;32;20192;-51
2022/09/25 08:36:00;;;;;;;1.70;1.70;;;;;;;17.07;85.77;94978.69;4387558;32;20192;-54
2022/09/25 08:38:31;;;;;;;3.07;2.87;;;;;;;17.07;84.96;94986.72;4376671;32;20228;-53
2022/09/25 08:41:15;;;;;;;1.37;1.37;;;;;;;16.97;83.95;94987.22;4370080;32;20238;-53
2022/09/25 08:44:17;;;;;;;2.37;2.27;;;;;;;17.21;83.70;94991.72;4385218;32;20204;-52
2022/09/25 08:50:25;;;;;;;2.00;1.93;;;;;;;16.37;83.34;94991.63;4385819;32;20207;-62
2022/09/25 08:53:18;;;;;;;3.77;2.43;;;;;;;15.81;85.86;95002.91;4350365;32;20192;-61
2022/09/25 08:58:43;;;;;;;2.43;2.27;;;;;;;14.98;89.39;95000.50;4385978;32;20202;-62
2022/09/25 09:01:18;;;;;;;2.73;2.53;;;;;;;14.84;90.48;94997.34;4341450;32;20197;-62
2022/09/25 09:03:48;;;;;;;2.87;2.77;;;;;;;14.78;91.68;94995.97;4396036;32;20214;-62
2022/09/25 09:06:15;;;;;;;5.80;2.97;;;;;;;14.59;91.85;94995.66;4389880;32;20205;-61
2022/09/25 09:09:03;;;;;;;3.60;3.33;;;;;;;14.64;90.39;94998.12;4410017;32;20216;-61
2022/09/25 09:11:41;;;;;;;2.97;2.87;;;;;;;14.31;92.40;94985.47;4369113;32;20181;-62
2022/09/25 09:14:16;;;;;;;2.73;2.60;;;;;;;14.17;93.31;94984.94;4364315;32;20199;-62
2022/09/25 09:16:59;;;;;;;2.40;2.30;;;;;;;14.34;92.96;94987.47;4364651;32;20218;-61
2022/09/25 09:19:26;;;;;;;4.03;3.63;;;;;;;14.22;93.92;94981.28;4384691;32;20196;-62
2022/09/25 09:22:11;;;;;;;4.20;3.93;;;;;;;14.22;94.46;94981.28;4381826;32;20197;-62
2022/09/25 09:24:54;;;;;;;3.33;3.13;;;;;;;14.27;94.65;94981.13;4384579;32;20275;-62
2022/09/25 09:27:26;;;;;;;3.03;2.93;;;;;;;14.22;94.54;94990.09;4384647;32;20180;-62
2022/09/25 09:29:53;;;;;;;7.03;3.47;;;;;;;14.34;94.20;94986.72;4367917;32;20184;-62
2022/09/25 09:32:36;;;;;;;3.33;3.23;;;;;;;14.32;94.97;94981.72;4372762;32;20188;-61
2022/09/25 09:35:38;;;;;;;5.40;4.67;;;;;;;14.28;94.60;94988.00;4366293;32;20180;-62
2022/09/25 09:38:28;;;;;;;4.60;4.30;;;;;;;14.24;94.27;94987.88;4373244;32;20188;-61
2022/09/25 09:41:07;;;;;;;3.37;3.17;;;;;;;14.32;94.35;94988.94;4374631;32;20233;-62
2022/09/25 09:44:03;;;;;;;2.93;2.83;;;;;;;14.32;93.82;94983.59;4352672;32;20209;-60
2022/09/25 09:47:24;;;;;;;3.60;3.40;;;;;;;14.40;93.46;94988.06;4382820;32;20241;-60
2022/09/25 09:50:02;;;;;;;3.20;3.07;;;;;;;14.50;92.52;94966.38;4323922;32;20226;-60
2022/09/25 09:52:38;;;;;;;3.57;3.33;;;;;;;14.41;92.12;94963.75;4368447;32;20233;-61
2022/09/25 09:55:28;;;;;;;3.70;3.40;;;;;;;14.39;92.21;94970.50;4355689;32;20193;-60
2022/09/25 09:58:04;;;;;;;3.50;3.17;;;;;;;14.49;91.90;94977.38;4338563;32;20197;-60
2022/09/25 10:00:31;;;;;;;4.83;4.37;;;;;;;14.54;92.89;94977.19;4383918;32;20244;-62
2022/09/25 10:03:28;;;;;;;3.47;3.17;;;;;;;14.48;92.90;94962.47;4357263;32;20192;-61
2022/09/25 10:05:58;;;;;;;4.10;3.90;;;;;;;14.70;91.23;94959.44;4354958;32;20219;-62
2022/09/25 10:08:26;;;;;;;4.00;3.77;;;;;;;14.89;90.29;94962.41;4389268;32;20254;-63
2022/09/25 10:10:53;;;;;;;3.93;3.73;;;;;;;14.95;90.31;94952.31;4382231;32;20264;-61
2022/09/25 10:13:31;;;;;;;3.57;3.27;;;;;;;14.92;90.67;94955.63;4368974;32;20195;-61
2022/09/25 10:16:18;;;;;;;2.70;2.60;;;;;;;15.02;90.61;94956.00;4363810;32;20278;-59
2022/09/25 10:19:03;;;;;;;3.83;3.53;;;;;;;15.03;89.77;94957.56;4389440;32;20215;-62
2022/09/25 10:21:47;;;;;;;4.30;4.10;;;;;;;15.08;88.90;94954.69;4406250;32;20183;-60
2022/09/25 10:24:57;;;;;;;3.10;2.90;;;;;;;14.94;88.80;94959.53;4372580;32;20232;-61
2022/09/25 10:27:47;;;;;;;3.43;3.23;;;;;;;15.08;89.55;94953.91;4368293;32;20192;-59
2022/09/25 10:30:21;;;;;;;3.27;3.17;;;;;;;15.18;90.37;94952.69;4332755;32;20264;-61
2022/09/25 10:33:27;;;;;;;3.70;3.50;;;;;;;15.15;91.15;94953.38;4373173;32;20218;-61
2022/09/25 10:35:53;;;;;;;3.60;3.40;;;;;;;15.36;89.57;94954.84;4365402;32;20179;-60
2022/09/25 10:38:28;;;;;;;2.27;2.17;;;;;;;15.46;88.82;94959.75;4345973;32;20188;-61
2022/09/25 10:41:18;;;;;;;4.20;3.97;;;;;;;15.47;88.96;94952.50;4393074;32;20198;-61
2022/09/25 10:44:02;;;;;;;2.10;2.00;;;;;;;15.51;89.50;94956.09;4359484;32;20191;-60
2022/09/25 10:52:17;;;;;;;2.37;2.27;;;;;;;15.63;87.81;94963.34;4386386;32;20228;-62
2022/09/25 10:54:45;;;;;;;2.37;2.27;;;;;;;15.74;87.51;94961.81;4370623;32;20189;-62
2022/09/25 10:57:37;;;;;;;2.43;2.33;;;;;;;15.85;87.49;94959.44;4368403;32;20195;-62
2022/09/25 11:00:22;;;;;;;2.27;2.17;;;;;;;15.77;87.01;94953.13;4377564;32;20232;-62
2022/09/25 11:03:04;;;;;;;2.63;2.53;;;;;;;15.91;86.71;94955.44;4365786;32;20192;-63
2022/09/25 11:05:32;;;;;;;2.00;1.90;;;;;;;16.24;86.22;94947.25;4355834;32;20328;-62
2022/09/25 11:08:03;;;;;;;4.70;2.67;;;;;;;16.40;85.23;94950.81;4392395;32;20235;-62
2022/09/25 11:10:35;;;;;;;1.87;1.77;;;;;;;16.17;85.08;94937.12;4366124;32;20227;-61
2022/09/25 11:13:19;;;;;;;3.43;3.23;;;;;;;16.35;85.16;94946.47;4395504;32;20188;-61
2022/09/25 11:15:57;;;;;;;2.20;2.10;;;;;;;16.34;84.42;94939.53;4382585;32;20246;-61
2022/09/25 11:18:48;;;;;;;1.63;1.63;;;;;;;16.19;84.29;94947.50;4369903;32;20207;-62
2022/09/25 11:21:31;;;;;;;1.60;1.53;;;;;;;16.54;82.97;94945.06;4351119;32;20185;-61
2022/09/25 11:24:15;;;;;;;3.93;2.40;;;;;;;16.44;84.17;94936.38;4367905;32;20245;-62
2022/09/25 11:26:49;;;;;;;3.27;3.17;;;;;;;16.43;84.07;94926.78;4329771;32;20352;-62
2022/09/25 11:29:57;;;;;;;1.83;1.73;;;;;;;16.65;83.66;94932.75;4374857;32;20185;-62
2022/09/25 11:32:40;;;;;;;2.20;2.10;;;;;;;16.59;81.42;94932.22;4322821;33;20252;-62
2022/09/25 11:35:43;;;;;;;2.43;2.33;;;;;;;16.68;81.47;94921.38;4321613;32;20182;-62
2022/09/25 11:41:10;;;;;;;1.80;1.57;;;;;;;16.75;80.58;94925.03;4359731;32;20303;-62
2022/09/25 11:41:21;;;;;;;2.47;2.37;;;;;;;16.64;82.00;94921.25;4348328;32;20275;-62
2022/09/25 11:44:22;;;;;;;2.93;1.63;;;;;;;16.76;81.33;94918.56;4389838;32;20184;-62
2022/09/25 11:47:19;;;;;;;2.00;1.90;;;;;;;16.73;78.04;94918.44;4409164;32;20236;-68
2022/09/25 11:49:50;;;;;;;2.03;1.93;;;;;;;16.42;79.59;94914.50;4406851;32;20192;-61
2022/09/25 11:52:38;;;;;;;3.03;1.77;;;;;;;16.50;79.15;94913.59;4364050;32;20188;-62
2022/09/25 11:55:26;;;;;;;1.87;1.73;;;;;;;16.59;78.42;94913.47;4389794;32;20195;-62
2022/09/25 11:58:04;;;;;;;1.13;1.13;;;;;;;16.70;80.32;94916.44;4394522;32;20212;-62
2022/09/25 12:00:52;;;;;;;2.53;2.43;;;;;;;16.77;81.07;94916.66;4371811;32;20204;-62
2022/09/25 12:03:20;;;;;;;1.77;1.77;;;;;;;16.70;82.48;94913.78;4374668;32;20223;-68
2022/09/25 12:06:04;;;;;;;1.67;1.67;;;;;;;16.69;82.22;94904.19;4390069;32;20200;-61
2022/09/25 12:09:09;;;;;;;2.47;2.37;;;;;;;16.77;81.89;94898.69;4384713;32;20223;-62
2022/09/25 12:11:58;;;;;;;1.70;1.70;;;;;;;16.82;78.57;94905.69;4373099;32;20208;-62
2022/09/25 12:14:54;;;;;;;3.17;2.97;;;;;;;16.71;80.96;94897.34;4359653;32;20201;-62
2022/09/25 12:17:53;;;;;;;1.60;1.60;;;;;;;16.75;78.19;94897.47;4382348;32;20196;-62
2022/09/25 12:20:37;;;;;;;2.27;2.17;;;;;;;16.72;80.17;94884.75;4359953;32;20192;-62
2022/09/25 12:23:20;;;;;;;1.73;1.70;;;;;;;16.73;79.08;94894.34;4392451;32;20184;-61
2022/09/25 12:26:11;;;;;;;2.23;2.10;;;;;;;16.82;78.70;94886.94;4345041;32;20207;-61